Time;durP1;ratioP1;P1;durP2;ratioP2;P2;SDS_P1;SDS_P2;PMS_P1;PMS_P2;Temp;Humidity;BMP_temperature;BMP_pressure;BME280_temperature;BME280_humidity;BME280_pressure;Samples;Min_cycle;Max_cycle;Signal;HPM_P1;HPM_P2
2021/11/07 00:00:48;;;;;;;1.02;1.00;;;6.50;99.90;;;;;;5074925;28;20094;-82
2021/11/07 00:03:28;;;;;;;0.90;0.90;;;6.50;99.90;;;;;;5092011;28;20048;-81
2021/11/07 00:06:21;;;;;;;0.75;0.75;;;6.50;99.90;;;;;;5077194;28;20020;-81
2021/11/07 00:09:15;;;;;;;0.60;0.60;;;6.60;99.90;;;;;;5093490;28;20423;-81
2021/11/07 00:11:37;;;;;;;1.70;1.02;;;6.50;99.90;;;;;;5092246;28;20409;-81
2021/11/07 00:14:06;;;;;;;0.52;0.52;;;6.60;99.90;;;;;;5092801;28;20481;-81
2021/11/07 00:16:35;;;;;;;2.58;1.50;;;6.50;99.90;;;;;;5092419;28;20099;-81
2021/11/07 00:21:28;;;;;;;1.13;1.05;;;6.60;99.90;;;;;;5092837;28;20028;-81
2021/11/07 00:24:04;;;;;;;3.25;1.70;;;6.60;99.90;;;;;;5092772;28;20440;-81
2021/11/07 00:29:03;;;;;;;0.30;0.30;;;6.70;99.90;;;;;;5092263;28;20513;-81
2021/11/07 00:31:44;;;;;;;0.15;0.15;;;6.70;99.90;;;;;;5074645;28;20024;-81
2021/11/07 00:37:00;;;;;;;7.32;0.55;;;6.90;99.90;;;;;;5097126;28;20068;-81
2021/11/07 00:39:47;;;;;;;5.68;0.93;;;6.90;99.90;;;;;;5096908;28;20043;-81
2021/11/07 00:44:56;;;;;;;2.00;1.45;;;7.00;99.90;;;;;;5097000;28;20056;-81
2021/11/07 00:47:41;;;;;;;1.20;0.57;;;7.10;99.90;;;;;;5096197;28;20112;-81
2021/11/07 00:50:16;;;;;;;2.17;0.85;;;7.20;99.90;;;;;;5095955;28;20028;-81
2021/11/07 00:55:46;;;;;;;0.55;0.52;;;7.30;99.90;;;;;;5078860;28;20044;-81
2021/11/07 00:58:19;;;;;;;0.57;0.57;;;7.30;99.90;;;;;;5096483;28;20378;-81
2021/11/07 01:03:17;;;;;;;0.35;0.35;;;7.40;99.90;;;;;;5095797;28;20524;-81
2021/11/07 01:05:43;;;;;;;0.20;0.20;;;7.40;99.90;;;;;;5095963;28;20024;-82
2021/11/07 01:08:08;;;;;;;0.03;0.03;;;7.40;99.90;;;;;;5096371;28;20058;-81
2021/11/07 01:10:35;;;;;;;0.10;0.10;;;7.50;99.90;;;;;;5095137;28;20410;-82
2021/11/07 01:13:01;;;;;;;0.57;0.52;;;7.50;99.90;;;;;;5095745;28;20059;-81
2021/11/07 01:15:28;;;;;;;0.57;0.40;;;7.50;99.90;;;;;;5096085;28;20449;-81
2021/11/07 01:17:55;;;;;;;2.28;0.77;;;7.60;99.90;;;;;;5095570;28;20096;-81
2021/11/07 01:20:26;;;;;;;0.55;0.55;;;7.50;99.90;;;;;;5095879;28;20059;-81
2021/11/07 01:22:57;;;;;;;1.95;0.98;;;7.50;99.90;;;;;;5096013;28;20130;-81
2021/11/07 01:25:25;;;;;;;0.73;0.73;;;7.40;99.90;;;;;;5077270;28;20043;-81
2021/11/07 01:27:52;;;;;;;4.28;2.55;;;7.40;99.90;;;;;;5094897;28;20055;-81
2021/11/07 01:30:22;;;;;;;1.45;0.30;;;7.40;99.90;;;;;;5094454;28;20533;-81
2021/11/07 01:32:56;;;;;;;1.73;1.60;;;7.40;99.90;;;;;;5093031;28;20047;-81
2021/11/07 01:40:34;;;;;;;1.98;1.70;;;7.40;99.90;;;;;;5094514;28;20114;-81
2021/11/07 01:43:01;;;;;;;1.55;0.75;;;7.40;99.90;;;;;;5093983;28;20032;-81
2021/11/07 01:45:49;;;;;;;2.03;1.60;;;7.40;99.90;;;;;;5094726;28;20024;-81
2021/11/07 01:48:22;;;;;;;0.95;0.52;;;7.40;99.90;;;;;;5094157;28;20030;-81
2021/11/07 01:50:57;;;;;;;0.75;0.63;;;7.30;99.90;;;;;;5073577;28;20437;-81
2021/11/07 01:53:30;;;;;;;0.63;0.28;;;7.30;99.90;;;;;;5055385;28;20036;-81
2021/11/07 01:55:58;;;;;;;0.30;0.30;;;7.30;99.90;;;;;;5073401;28;20130;-81
2021/11/07 01:58:26;;;;;;;0.98;0.95;;;7.30;99.90;;;;;;5055790;28;20521;-81
2021/11/07 02:00:53;;;;;;;0.10;0.10;;;7.30;99.90;;;;;;5073229;28;20027;-81
2021/11/07 02:03:19;;;;;;;1.90;0.82;;;7.30;99.90;;;;;;5073582;28;20020;-81
2021/11/07 02:05:47;;;;;;;0.45;0.30;;;7.30;99.90;;;;;;5073478;28;20052;-81
2021/11/07 02:08:13;;;;;;;0.45;0.45;;;7.40;99.90;;;;;;5073635;28;20047;-81
2021/11/07 02:10:40;;;;;;;2.53;1.27;;;7.40;99.90;;;;;;5073553;28;20017;-81
2021/11/07 02:13:07;;;;;;;0.35;0.35;;;7.40;99.90;;;;;;5073352;28;20372;-81
2021/11/07 02:15:33;;;;;;;0.43;0.43;;;7.40;99.90;;;;;;5073453;28;20073;-81
2021/11/07 02:17:59;;;;;;;0.80;0.65;;;7.40;99.90;;;;;;5072555;28;20024;-81
2021/11/07 02:20:29;;;;;;;1.20;0.85;;;7.50;99.90;;;;;;5073400;28;20043;-81
2021/11/07 02:22:56;;;;;;;0.10;0.10;;;7.50;99.90;;;;;;5073527;28;20033;-82
2021/11/07 02:25:22;;;;;;;0.10;0.10;;;7.50;99.90;;;;;;5033054;28;1151825;-81
2021/11/07 02:27:47;;;;;;;0.10;0.03;;;7.60;99.90;;;;;;5074330;28;20440;-81
2021/11/07 02:30:15;;;;;;;0.10;0.10;;;7.60;99.90;;;;;;5073156;28;20043;-82
2021/11/07 02:32:46;;;;;;;0.43;0.43;;;7.70;99.90;;;;;;5075433;28;20112;-81
2021/11/07 02:35:12;;;;;;;0.10;0.10;;;7.70;99.90;;;;;;5094041;28;20073;-81
2021/11/07 02:37:39;;;;;;;0.22;0.22;;;7.80;99.90;;;;;;5094154;28;20020;-80
2021/11/07 02:40:07;;;;;;;0.90;0.75;;;7.90;99.90;;;;;;5094449;28;20052;-81
2021/11/07 02:42:34;;;;;;;0.43;0.43;;;7.90;99.90;;;;;;5094414;28;20099;-81
2021/11/07 02:45:00;;;;;;;0.52;0.52;;;7.90;99.90;;;;;;5094240;28;20028;-81
2021/11/07 02:47:27;;;;;;;0.43;0.43;;;7.90;99.90;;;;;;5094094;28;20024;-82
2021/11/07 02:49:52;;;;;;;0.05;0.05;;;8.00;99.90;;;;;;5093953;28;20352;-81
2021/11/07 02:52:18;;;;;;;2.08;0.82;;;8.00;99.90;;;;;;5093666;28;20111;-81
2021/11/07 02:54:44;;;;;;;0.00;0.00;;;8.00;99.90;;;;;;5093543;28;20028;-81
2021/11/07 02:57:12;;;;;;;0.85;0.45;;;8.00;99.90;;;;;;5076137;28;20020;-81
2021/11/07 02:59:41;;;;;;;0.10;0.05;;;8.00;99.90;;;;;;5075919;28;20494;-81
2021/11/07 03:02:09;;;;;;;0.03;0.03;;;8.00;99.90;;;;;;5093617;28;20103;-81
2021/11/07 03:04:36;;;;;;;0.10;0.10;;;8.10;99.90;;;;;;5094264;28;20031;-81
2021/11/07 03:07:04;;;;;;;0.15;0.15;;;8.00;99.90;;;;;;5093647;28;20035;-81
2021/11/07 03:09:32;;;;;;;0.20;0.20;;;8.10;99.90;;;;;;5094096;28;20036;-81
2021/11/07 03:11:59;;;;;;;3.95;2.17;;;8.10;99.90;;;;;;5093861;28;20053;-81
2021/11/07 03:14:35;;;;;;;7.18;0.88;;;8.10;99.90;;;;;;5094069;28;20055;-81
2021/11/07 03:17:03;;;;;;;0.70;0.17;;;8.20;99.90;;;;;;5074954;28;20032;-82
2021/11/07 03:19:29;;;;;;;0.57;0.25;;;8.20;99.90;;;;;;5093524;28;20111;-82
2021/11/07 03:22:02;;;;;;;0.00;0.00;;;8.20;99.90;;;;;;5093566;28;20150;-81
2021/11/07 03:24:28;;;;;;;0.20;0.20;;;8.20;99.90;;;;;;5093656;28;20028;-82
2021/11/07 03:26:56;;;;;;;0.00;0.00;;;8.20;99.90;;;;;;5093815;28;20047;-81
2021/11/07 03:29:31;;;;;;;1.65;1.25;;;8.30;99.90;;;;;;5093763;28;20106;-81
2021/11/07 03:32:03;;;;;;;0.13;0.13;;;8.20;99.90;;;;;;5092323;28;20154;-81
2021/11/07 03:34:31;;;;;;;2.40;0.90;;;8.30;99.90;;;;;;5091664;28;20471;-82
2021/11/07 03:37:02;;;;;;;0.00;0.00;;;8.30;99.90;;;;;;5074963;28;20028;-81
2021/11/07 03:39:32;;;;;;;0.35;0.35;;;8.30;99.90;;;;;;5093156;28;20023;-81
2021/11/07 03:41:59;;;;;;;0.10;0.10;;;8.30;99.90;;;;;;5093188;28;20016;-82
2021/11/07 03:44:25;;;;;;;0.08;0.08;;;8.30;99.90;;;;;;5092905;28;20482;-81
2021/11/07 03:46:53;;;;;;;3.83;1.85;;;8.30;99.90;;;;;;5092426;28;20043;-81
2021/11/07 03:49:20;;;;;;;0.10;0.10;;;8.30;99.90;;;;;;5092795;28;20024;-81
2021/11/07 03:51:46;;;;;;;0.93;0.35;;;8.40;99.90;;;;;;5092683;28;20035;-82
2021/11/07 03:54:13;;;;;;;0.20;0.20;;;8.40;99.90;;;;;;5092777;28;20046;-81
2021/11/07 03:56:39;;;;;;;0.52;0.52;;;8.40;99.90;;;;;;5075200;28;20027;-81
2021/11/07 03:59:05;;;;;;;0.30;0.30;;;8.30;99.90;;;;;;5092623;28;20043;-81
2021/11/07 04:01:31;;;;;;;0.00;0.00;;;8.30;99.90;;;;;;5092762;28;20063;-81
2021/11/07 04:03:57;;;;;;;0.08;0.08;;;8.30;99.90;;;;;;5092939;28;20107;-82
2021/11/07 04:06:23;;;;;;;0.05;0.05;;;8.30;99.90;;;;;;5092456;28;20099;-82
2021/11/07 04:08:48;;;;;;;0.73;0.32;;;8.30;99.90;;;;;;5093237;28;20571;-82
2021/11/07 04:11:15;;;;;;;0.55;0.55;;;8.40;99.90;;;;;;5091639;28;20486;-81
2021/11/07 04:13:41;;;;;;;1.30;0.88;;;8.40;99.90;;;;;;5092572;28;20437;-82
2021/11/07 04:16:09;;;;;;;0.03;0.03;;;8.40;99.90;;;;;;5092733;28;20439;-81
2021/11/07 04:18:36;;;;;;;0.13;0.13;;;8.40;99.90;;;;;;5074671;28;20024;-82
2021/11/07 04:21:03;;;;;;;0.45;0.28;;;8.40;99.90;;;;;;5074430;28;20556;-81
2021/11/07 04:23:29;;;;;;;0.47;0.43;;;8.40;99.90;;;;;;5092804;28;20038;-81
2021/11/07 04:25:54;;;;;;;0.00;0.00;;;8.40;99.90;;;;;;5092487;28;20043;-82
2021/11/07 04:28:20;;;;;;;0.20;0.08;;;8.50;99.90;;;;;;5092674;28;20577;-81
2021/11/07 04:30:46;;;;;;;0.10;0.10;;;8.50;99.90;;;;;;5074553;28;20032;-82
2021/11/07 04:33:12;;;;;;;0.25;0.25;;;8.50;99.90;;;;;;5091660;28;20066;-81
2021/11/07 04:35:38;;;;;;;0.17;0.17;;;8.50;99.90;;;;;;5090574;28;20429;-81
2021/11/07 04:38:03;;;;;;;0.15;0.15;;;8.50;99.90;;;;;;5074551;28;20028;-81
2021/11/07 04:40:29;;;;;;;0.52;0.10;;;8.60;99.90;;;;;;5092876;28;20046;-81
2021/11/07 04:42:56;;;;;;;0.10;0.10;;;8.60;99.90;;;;;;5092569;28;20024;-81
2021/11/07 04:45:22;;;;;;;0.00;0.00;;;8.70;99.90;;;;;;5092811;28;20034;-82
2021/11/07 04:47:48;;;;;;;0.00;0.00;;;8.70;99.90;;;;;;5074194;28;20039;-81
2021/11/07 04:50:17;;;;;;;0.30;0.30;;;8.70;99.90;;;;;;5092092;28;20390;-81
2021/11/07 04:52:44;;;;;;;0.03;0.03;;;8.70;99.90;;;;;;5091977;28;20028;-81
2021/11/07 04:55:11;;;;;;;0.40;0.40;;;8.70;99.90;;;;;;5092138;28;20024;-82
2021/11/07 04:57:43;;;;;;;0.28;0.22;;;8.80;99.90;;;;;;5074061;28;20082;-82
2021/11/07 05:00:17;;;;;;;0.10;0.10;;;8.80;99.90;;;;;;5091452;28;20073;-82
2021/11/07 05:02:44;;;;;;;0.73;0.45;;;8.80;99.90;;;;;;5092419;28;20375;-81
2021/11/07 05:05:10;;;;;;;0.73;0.73;;;8.80;99.90;;;;;;5073765;28;20025;-81
2021/11/07 05:07:36;;;;;;;0.15;0.15;;;8.80;99.90;;;;;;5091984;28;20028;-82
2021/11/07 05:10:02;;;;;;;0.75;0.28;;;8.70;99.90;;;;;;5074087;28;20035;-82
2021/11/07 05:12:28;;;;;;;0.00;0.00;;;8.70;99.90;;;;;;5092257;28;20111;-81
2021/11/07 05:14:55;;;;;;;0.15;0.15;;;8.70;99.90;;;;;;5092552;28;20447;-81
2021/11/07 05:17:21;;;;;;;0.65;0.65;;;8.80;99.90;;;;;;5092624;28;20097;-81
2021/11/07 05:19:47;;;;;;;0.10;0.10;;;8.70;99.90;;;;;;5096132;28;20052;-81
2021/11/07 05:22:15;;;;;;;0.20;0.20;;;8.80;99.90;;;;;;5096192;28;20048;-81
2021/11/07 05:24:41;;;;;;;0.63;0.63;;;8.80;99.90;;;;;;5095838;28;20109;-82
2021/11/07 05:27:07;;;;;;;0.10;0.10;;;8.80;99.90;;;;;;5095689;28;20068;-81
2021/11/07 05:29:33;;;;;;;0.00;0.00;;;8.80;99.90;;;;;;5096086;28;20026;-81
2021/11/07 05:32:00;;;;;;;0.00;0.00;;;8.80;99.90;;;;;;5077399;28;20052;-81
2021/11/07 05:34:26;;;;;;;3.60;0.30;;;8.80;99.90;;;;;;5094239;28;20093;-82
2021/11/07 05:36:52;;;;;;;0.20;0.20;;;8.80;99.90;;;;;;5095679;28;20028;-81
2021/11/07 05:39:19;;;;;;;0.10;0.10;;;8.80;99.90;;;;;;5095241;28;20509;-80
2021/11/07 05:41:44;;;;;;;0.15;0.10;;;8.80;99.90;;;;;;5095522;28;20027;-82
2021/11/07 05:44:10;;;;;;;0.43;0.28;;;8.80;99.90;;;;;;5095714;28;20032;-81
2021/11/07 05:46:36;;;;;;;0.00;0.00;;;8.80;99.90;;;;;;5095424;28;20106;-81
2021/11/07 05:49:03;;;;;;;0.45;0.45;;;8.80;99.90;;;;;;5094979;28;20028;-81
2021/11/07 05:51:29;;;;;;;0.32;0.32;;;8.80;99.90;;;;;;5094579;28;20024;-81
2021/11/07 05:53:54;;;;;;;1.85;0.52;;;8.80;99.90;;;;;;5093841;28;20121;-81
2021/11/07 05:56:20;;;;;;;0.10;0.10;;;8.80;99.90;;;;;;5095589;28;20506;-82
2021/11/07 05:58:46;;;;;;;0.17;0.17;;;8.80;99.90;;;;;;5076508;28;20372;-81
2021/11/07 06:01:12;;;;;;;0.00;0.00;;;8.80;99.90;;;;;;5094670;28;20024;-81
2021/11/07 06:03:38;;;;;;;0.20;0.20;;;8.90;99.90;;;;;;5095406;28;20020;-82
2021/11/07 06:06:03;;;;;;;0.65;0.20;;;8.80;99.90;;;;;;5094730;28;20395;-81
2021/11/07 06:08:29;;;;;;;0.93;0.63;;;8.80;99.90;;;;;;5076713;28;20027;-81
2021/11/07 06:10:55;;;;;;;0.00;0.00;;;8.80;99.90;;;;;;5095145;28;20039;-81
2021/11/07 06:13:21;;;;;;;0.55;0.55;;;8.80;99.90;;;;;;5094822;28;20103;-81
2021/11/07 06:15:47;;;;;;;0.45;0.45;;;8.80;99.90;;;;;;5094874;28;20107;-81
2021/11/07 06:18:13;;;;;;;2.92;0.40;;;8.80;99.90;;;;;;5076156;28;20023;-82
2021/11/07 06:20:38;;;;;;;0.15;0.15;;;8.80;99.90;;;;;;5095064;28;20376;-81
2021/11/07 06:23:05;;;;;;;0.00;0.00;;;8.80;99.90;;;;;;5076369;28;20032;-81
2021/11/07 06:25:32;;;;;;;1.65;1.05;;;8.80;99.90;;;;;;5076560;28;20051;-81
2021/11/07 06:27:58;;;;;;;0.35;0.35;;;8.90;99.90;;;;;;5094508;28;20094;-81
2021/11/07 06:30:24;;;;;;;0.00;0.00;;;8.90;99.90;;;;;;5093992;28;20036;-81
2021/11/07 06:32:50;;;;;;;0.08;0.08;;;8.90;99.90;;;;;;5076650;28;20482;-81
2021/11/07 06:35:16;;;;;;;0.57;0.47;;;8.90;99.90;;;;;;5093419;28;20111;-81
2021/11/07 06:37:42;;;;;;;0.00;0.00;;;8.90;99.90;;;;;;5094485;28;20020;-81
2021/11/07 06:40:11;;;;;;;0.10;0.10;;;8.90;99.90;;;;;;5094239;28;20055;-82
2021/11/07 06:42:38;;;;;;;0.28;0.25;;;8.90;99.90;;;;;;5094227;28;20020;-81
2021/11/07 06:45:05;;;;;;;0.00;0.00;;;8.90;99.90;;;;;;5092831;28;20038;-81
2021/11/07 06:47:30;;;;;;;0.32;0.15;;;8.90;99.90;;;;;;5092639;28;20028;-82
2021/11/07 06:49:56;;;;;;;0.10;0.10;;;8.90;99.90;;;;;;5093670;28;20039;-81
2021/11/07 06:52:22;;;;;;;0.57;0.52;;;8.90;99.90;;;;;;5093307;28;20063;-81
2021/11/07 06:54:49;;;;;;;0.35;0.35;;;8.90;99.90;;;;;;5094057;28;20490;-81
2021/11/07 06:57:15;;;;;;;1.33;1.00;;;8.90;99.90;;;;;;5094258;28;20059;-81
2021/11/07 06:59:41;;;;;;;0.25;0.25;;;8.90;99.90;;;;;;5093541;28;20020;-82
2021/11/07 07:02:07;;;;;;;7.22;1.90;;;9.00;99.90;;;;;;5074518;28;20028;-82
2021/11/07 07:04:32;;;;;;;0.10;0.10;;;8.90;99.90;;;;;;5075982;28;20028;-81
2021/11/07 07:06:58;;;;;;;0.15;0.15;;;9.00;99.90;;;;;;5093586;28;20032;-81
2021/11/07 07:09:30;;;;;;;0.43;0.25;;;9.00;99.90;;;;;;5093910;28;20028;-81
2021/11/07 07:12:08;;;;;;;0.10;0.10;;;9.00;99.90;;;;;;5092862;28;20024;-81
2021/11/07 07:14:45;;;;;;;0.32;0.32;;;8.90;99.90;;;;;;5093777;28;20024;-82
2021/11/07 07:19:57;;;;;;;0.80;0.30;;;8.90;99.90;;;;;;5093779;28;20146;-82
2021/11/07 07:35:56;;;;;;;0.15;0.15;;;9.10;99.90;;;;;;5092128;28;20028;-81
2021/11/07 07:38:24;;;;;;;3.35;0.80;;;9.20;99.90;;;;;;5093170;28;20016;-81
2021/11/07 07:40:50;;;;;;;0.52;0.50;;;9.20;99.90;;;;;;5074401;28;20066;-81
2021/11/07 07:43:16;;;;;;;1.65;1.20;;;9.30;99.90;;;;;;5093318;28;20115;-81
2021/11/07 07:45:41;;;;;;;0.82;0.50;;;9.30;99.90;;;;;;5093263;28;20163;-82
2021/11/07 07:48:08;;;;;;;0.70;0.70;;;9.40;99.90;;;;;;5092953;28;20028;-82
2021/11/07 07:50:37;;;;;;;0.10;0.10;;;9.40;99.90;;;;;;5092496;28;20051;-81
2021/11/07 07:53:03;;;;;;;0.20;0.20;;;9.50;99.90;;;;;;5092027;28;20024;-81
2021/11/07 07:55:28;;;;;;;0.38;0.22;;;9.50;99.90;;;;;;5092856;28;20111;-82
2021/11/07 07:57:54;;;;;;;0.20;0.20;;;9.50;99.90;;;;;;5092959;28;20412;-81
2021/11/07 08:00:21;;;;;;;0.05;0.05;;;9.60;99.90;;;;;;5092883;28;20034;-82
2021/11/07 08:02:47;;;;;;;0.10;0.10;;;9.60;99.90;;;;;;5092934;28;20069;-81
2021/11/07 08:05:14;;;;;;;0.75;0.65;;;9.60;99.90;;;;;;5092416;28;20016;-81
2021/11/07 08:07:42;;;;;;;0.63;0.63;;;9.60;99.90;;;;;;5074721;28;20440;-81
2021/11/07 08:10:09;;;;;;;0.40;0.40;;;9.60;99.90;;;;;;5092845;28;20032;-82
2021/11/07 08:12:37;;;;;;;0.20;0.20;;;9.70;99.90;;;;;;5093064;28;20056;-81
2021/11/07 08:15:04;;;;;;;0.20;0.20;;;9.80;99.90;;;;;;5091884;28;20115;-81
2021/11/07 08:17:30;;;;;;;0.17;0.17;;;9.90;99.90;;;;;;5092555;28;20108;-81
2021/11/07 08:19:56;;;;;;;0.15;0.15;;;9.90;99.90;;;;;;5092766;28;20410;-81
2021/11/07 08:22:21;;;;;;;0.17;0.17;;;10.00;99.90;;;;;;5092896;28;20028;-81
2021/11/07 08:24:47;;;;;;;0.08;0.08;;;10.00;99.90;;;;;;5092571;28;20028;-81
2021/11/07 08:27:14;;;;;;;0.68;0.10;;;10.10;99.90;;;;;;5092423;28;20054;-81
2021/11/07 08:29:40;;;;;;;0.15;0.15;;;10.10;99.90;;;;;;5074479;28;20575;-80
2021/11/07 08:32:07;;;;;;;0.00;0.00;;;10.20;99.90;;;;;;5092199;28;20020;-81
2021/11/07 08:34:34;;;;;;;0.10;0.10;;;10.30;99.90;;;;;;5092196;28;20024;-81
2021/11/07 08:37:11;;;;;;;0.20;0.20;;;10.30;99.90;;;;;;5091548;28;20027;-81
2021/11/07 08:39:53;;;;;;;0.28;0.28;;;10.40;99.90;;;;;;5092807;28;20119;-82
2021/11/07 08:42:45;;;;;;;0.55;0.32;;;10.60;99.90;;;;;;5091252;28;20108;-82
2021/11/07 09:06:58;;;;;;;0.25;0.25;;;11.60;99.90;;;;;;5096173;28;20050;-81
2021/11/07 09:09:29;;;;;;;0.70;0.30;;;11.70;99.90;;;;;;5096381;28;20036;-81
2021/11/07 09:11:56;;;;;;;0.17;0.17;;;11.80;99.90;;;;;;5096470;28;20039;-82
2021/11/07 09:14:37;;;;;;;0.32;0.20;;;12.00;99.90;;;;;;5096233;28;20508;-81
2021/11/07 09:17:14;;;;;;;0.25;0.25;;;12.10;99.90;;;;;;5076967;28;20024;-81
2021/11/07 09:19:43;;;;;;;1.02;0.60;;;12.10;99.90;;;;;;5095527;28;20424;-82
2021/11/07 09:24:55;;;;;;;0.00;0.00;;;12.20;99.90;;;;;;5096049;28;20024;-82
2021/11/07 09:29:59;;;;;;;0.63;0.63;;;12.20;99.90;;;;;;5096043;28;20035;-81
2021/11/07 09:38:20;;;;;;;0.88;0.17;;;12.40;99.90;;;;;;5095065;28;20039;-81
2021/11/07 09:40:48;;;;;;;0.00;0.00;;;12.50;99.90;;;;;;5095120;28;20402;-81
2021/11/07 09:43:39;;;;;;;0.00;0.00;;;12.50;99.90;;;;;;5075222;28;20078;-81
2021/11/07 09:46:08;;;;;;;0.00;0.00;;;12.60;99.90;;;;;;5073551;28;20067;-82
2021/11/07 09:48:37;;;;;;;0.00;0.00;;;12.60;99.90;;;;;;5077296;28;20119;-81
2021/11/07 09:51:05;;;;;;;0.30;0.10;;;12.60;99.90;;;;;;5094677;28;20024;-82
2021/11/07 09:53:32;;;;;;;0.00;0.00;;;12.70;99.90;;;;;;5094887;28;20024;-82
2021/11/07 09:55:59;;;;;;;0.00;0.00;;;12.70;99.90;;;;;;5095473;28;20047;-82
2021/11/07 09:58:25;;;;;;;0.00;0.00;;;12.70;99.90;;;;;;5095167;28;20016;-82
2021/11/07 10:00:54;;;;;;;0.00;0.00;;;12.80;99.90;;;;;;5095401;28;20027;-82
2021/11/07 10:03:23;;;;;;;1.17;0.57;;;12.80;99.90;;;;;;5094798;28;20516;-82
2021/11/07 10:05:51;;;;;;;0.28;0.28;;;12.90;99.90;;;;;;5077367;28;20115;-82
2021/11/07 10:08:18;;;;;;;0.00;0.00;;;12.80;99.90;;;;;;5093760;28;20027;-82
2021/11/07 10:11:09;;;;;;;0.00;0.00;;;12.80;99.90;;;;;;5075632;28;20040;-82
2021/11/07 10:13:33;;;;;;;0.00;0.00;;;12.90;99.90;;;;;;5094139;28;20045;-82
2021/11/07 10:16:05;;;;;;;0.20;0.20;;;12.90;99.90;;;;;;5094459;28;20020;-82
2021/11/07 10:21:17;;;;;;;0.00;0.00;;;13.00;99.90;;;;;;5095006;28;20039;-83
2021/11/07 10:23:47;;;;;;;0.00;0.00;;;12.90;99.90;;;;;;5095050;28;20032;-82
2021/11/07 10:26:23;;;;;;;0.00;0.00;;;13.00;99.90;;;;;;5094551;28;20072;-83
2021/11/07 10:28:56;;;;;;;0.05;0.05;;;13.00;99.90;;;;;;5094780;28;20398;-83
2021/11/07 10:31:31;;;;;;;0.00;0.00;;;12.90;99.90;;;;;;5093525;28;20128;-82
2021/11/07 10:34:20;;;;;;;0.00;0.00;;;12.90;99.90;;;;;;5076327;28;20031;-82
2021/11/07 10:52:37;;;;;;;0.30;0.30;;;13.30;99.90;;;;;;5092771;28;20518;-83
2021/11/07 10:55:16;;;;;;;0.00;0.00;;;13.40;99.90;;;;;;5093705;28;20020;-82
2021/11/07 10:57:50;;;;;;;0.10;0.08;;;13.50;99.90;;;;;;5094441;28;20027;-83
2021/11/07 11:00:39;;;;;;;0.00;0.00;;;13.40;99.90;;;;;;5093883;28;20026;-83
2021/11/07 11:03:13;;;;;;;0.00;0.00;;;13.50;99.90;;;;;;5075590;28;20131;-83
2021/11/07 11:05:52;;;;;;;0.00;0.00;;;13.40;99.90;;;;;;5075734;28;20063;-83
2021/11/07 11:08:31;;;;;;;0.30;0.30;;;13.40;99.90;;;;;;5093736;28;20024;-82
2021/11/07 11:32:01;;;;;;;0.00;0.00;;;13.50;99.90;;;;;;5093516;28;20028;-83
2021/11/07 11:34:34;;;;;;;0.00;0.00;;;13.50;99.90;;;;;;5074767;28;20097;-83
2021/11/07 11:37:12;;;;;;;0.00;0.00;;;13.40;99.90;;;;;;5093186;28;20027;-83
2021/11/07 11:39:43;;;;;;;0.00;0.00;;;13.30;99.90;;;;;;5092020;28;20012;-83
2021/11/07 11:42:16;;;;;;;0.00;0.00;;;13.40;99.90;;;;;;5093140;28;20047;-83
2021/11/07 11:44:45;;;;;;;0.00;0.00;;;13.50;99.90;;;;;;5093020;28;20020;-83
2021/11/07 11:53:17;;;;;;;0.00;0.00;;;13.60;99.90;;;;;;5046742;28;20043;-82
2021/11/07 11:55:51;;;;;;;0.85;0.45;;;13.50;99.90;;;;;;5092914;28;20020;-83
2021/11/07 11:59:23;;;;;;;0.00;0.00;;;13.60;99.90;;;;;;5074495;28;20074;-82
2021/11/07 12:01:50;;;;;;;0.00;0.00;;;13.60;99.90;;;;;;5081355;28;20422;-83
2021/11/07 12:04:23;;;;;;;0.00;0.00;;;13.60;99.90;;;;;;5092186;28;20044;-83
2021/11/07 12:06:51;;;;;;;0.10;0.10;;;13.70;99.90;;;;;;5092379;28;20023;-83
2021/11/07 12:17:03;;;;;;;0.00;0.00;;;13.90;99.90;;;;;;5092467;28;20093;-82
2021/11/07 12:19:32;;;;;;;0.00;0.00;;;13.90;99.90;;;;;;5074494;28;20020;-82
2021/11/07 12:22:20;;;;;;;0.00;0.00;;;14.00;99.90;;;;;;5092595;28;20025;-82
2021/11/07 12:24:49;;;;;;;0.00;0.00;;;14.00;99.90;;;;;;5078800;28;20137;-82
2021/11/07 12:27:31;;;;;;;0.17;0.17;;;13.90;99.90;;;;;;5095192;28;20047;-82
2021/11/07 12:29:59;;;;;;;0.00;0.00;;;14.00;99.90;;;;;;5078954;28;20062;-82
2021/11/07 12:32:37;;;;;;;0.00;0.00;;;13.90;99.90;;;;;;5078493;28;20115;-82
2021/11/07 12:35:15;;;;;;;0.00;0.00;;;13.90;99.90;;;;;;5078298;28;20118;-82
2021/11/07 12:41:11;;;;;;;0.00;0.00;;;13.80;99.90;;;;;;5095818;28;20027;-83
2021/11/07 12:43:41;;;;;;;0.00;0.00;;;14.00;99.90;;;;;;5080709;28;20036;-83
2021/11/07 12:47:04;;;;;;;0.93;0.90;;;14.00;99.90;;;;;;5096512;28;20034;-82
2021/11/07 12:49:31;;;;;;;0.00;0.00;;;14.00;99.90;;;;;;5096135;28;20509;-82
2021/11/07 12:52:06;;;;;;;0.00;0.00;;;13.90;99.90;;;;;;5095818;28;20035;-83
2021/11/07 12:54:40;;;;;;;0.00;0.00;;;13.90;99.90;;;;;;5096323;28;20071;-82
2021/11/07 12:57:16;;;;;;;0.00;0.00;;;13.90;99.90;;;;;;5078153;28;20782;-82
2021/11/07 12:59:55;;;;;;;0.00;0.00;;;14.00;99.90;;;;;;5096457;28;20087;-83
2021/11/07 13:02:29;;;;;;;0.10;0.10;;;14.00;99.90;;;;;;5096385;28;20017;-83
2021/11/07 13:05:20;;;;;;;0.75;0.32;;;14.00;99.90;;;;;;5096234;28;20039;-83
2021/11/07 13:08:04;;;;;;;0.00;0.00;;;14.00;99.90;;;;;;5096227;28;20093;-83
2021/11/07 13:10:42;;;;;;;0.22;0.22;;;14.00;99.90;;;;;;5094644;28;20131;-83
2021/11/07 13:13:58;;;;;;;0.00;0.00;;;14.10;99.90;;;;;;5095930;28;20496;-81
2021/11/07 13:27:08;;;;;;;0.00;0.00;;;14.30;99.90;;;;;;5095535;28;20047;-83
2021/11/07 13:34:59;;;;;;;0.22;0.22;;;14.00;99.90;;;;;;5075506;28;20029;-82
2021/11/07 13:37:30;;;;;;;0.00;0.00;;;13.90;99.90;;;;;;5075081;28;20017;-84
2021/11/07 13:40:35;;;;;;;0.00;0.00;;;13.90;99.90;;;;;;5073707;28;20020;-84
2021/11/07 13:43:18;;;;;;;0.00;0.00;;;13.90;99.90;;;;;;5057167;28;20027;-83
2021/11/07 13:45:49;;;;;;;0.00;0.00;;;13.90;99.90;;;;;;5074935;28;20032;-84
2021/11/07 13:48:21;;;;;;;0.00;0.00;;;13.90;99.90;;;;;;5074662;28;20024;-83
2021/11/07 13:50:48;;;;;;;0.00;0.00;;;13.80;99.90;;;;;;5056823;28;20446;-83
2021/11/07 13:53:19;;;;;;;0.00;0.00;;;13.80;99.90;;;;;;5074069;28;20078;-83
2021/11/07 13:55:49;;;;;;;0.00;0.00;;;13.90;99.90;;;;;;5074750;28;20056;-84
2021/11/07 13:58:20;;;;;;;0.00;0.00;;;13.90;99.90;;;;;;5074343;28;20067;-83
2021/11/07 14:00:48;;;;;;;0.00;0.00;;;13.90;99.90;;;;;;5074237;28;20028;-83
2021/11/07 14:03:17;;;;;;;0.68;0.38;;;14.00;99.90;;;;;;5073830;28;20056;-84
2021/11/07 14:05:57;;;;;;;0.00;0.00;;;14.00;99.90;;;;;;5074330;28;20031;-83
2021/11/07 14:08:23;;;;;;;0.10;0.10;;;14.00;99.90;;;;;;5074495;28;20510;-84
2021/11/07 14:10:50;;;;;;;0.00;0.00;;;14.00;99.90;;;;;;5074561;28;20025;-84
2021/11/07 14:13:17;;;;;;;0.00;0.00;;;14.10;99.90;;;;;;5071823;28;20039;-84
2021/11/07 14:15:49;;;;;;;0.10;0.10;;;14.20;99.90;;;;;;5073284;28;20025;-83
2021/11/07 14:18:28;;;;;;;0.00;0.00;;;14.20;99.90;;;;;;5073887;28;20033;-84
2021/11/07 14:20:58;;;;;;;0.00;0.00;;;14.30;99.90;;;;;;5072008;28;20025;-83
2021/11/07 14:23:52;;;;;;;0.08;0.08;;;14.40;99.90;;;;;;5074091;28;20479;-83
2021/11/07 14:26:41;;;;;;;0.00;0.00;;;14.40;99.90;;;;;;5074116;28;20041;-83
2021/11/07 14:29:23;;;;;;;0.00;0.00;;;14.50;99.90;;;;;;5072780;28;20031;-83
2021/11/07 14:32:04;;;;;;;0.00;0.00;;;14.50;99.90;;;;;;5073925;28;20020;-83
2021/11/07 14:34:44;;;;;;;0.40;0.40;;;14.90;99.90;;;;;;5091810;28;20030;-83
2021/11/07 14:37:19;;;;;;;0.00;0.00;;;15.00;99.90;;;;;;5094259;28;20031;-83
2021/11/07 14:40:09;;;;;;;0.00;0.00;;;15.30;99.90;;;;;;5094393;28;20024;-83
2021/11/07 14:43:00;;;;;;;0.00;0.00;;;15.40;99.90;;;;;;5094293;28;20023;-83
2021/11/07 14:48:41;;;;;;;0.00;0.00;;;15.20;99.90;;;;;;5094284;28;20043;-84
2021/11/07 14:54:13;;;;;;;0.08;0.08;;;15.10;99.90;;;;;;5073915;28;20035;-83
2021/11/07 15:02:06;;;;;;;8.00;0.38;;;14.80;99.90;;;;;;5094117;28;20119;-83
2021/11/07 15:04:41;;;;;;;0.00;0.00;;;14.70;99.90;;;;;;5093913;28;20448;-83
2021/11/07 15:07:13;;;;;;;0.00;0.00;;;14.70;99.90;;;;;;5093410;28;20543;-83
2021/11/07 15:20:27;;;;;;;0.00;0.00;;;14.80;99.90;;;;;;5093758;28;20031;-83
2021/11/07 15:22:53;;;;;;;0.00;0.00;;;15.00;99.90;;;;;;5093430;28;20425;-83
2021/11/07 15:25:27;;;;;;;0.00;0.00;;;15.20;99.90;;;;;;5074997;28;20044;-83
2021/11/07 15:27:57;;;;;;;0.10;0.00;;;15.40;99.90;;;;;;5093374;28;20021;-83
2021/11/07 15:30:23;;;;;;;0.00;0.00;;;15.40;99.90;;;;;;5093284;28;20032;-83
2021/11/07 15:32:49;;;;;;;0.00;0.00;;;15.30;99.90;;;;;;5093027;28;20020;-83
2021/11/07 15:35:22;;;;;;;0.03;0.03;;;15.30;99.90;;;;;;5092953;28;20110;-83
2021/11/07 15:37:49;;;;;;;0.10;0.10;;;15.20;99.90;;;;;;5075070;28;20012;-83
2021/11/07 15:40:16;;;;;;;0.55;0.32;;;15.30;99.90;;;;;;5093187;28;20518;-83
2021/11/07 15:42:45;;;;;;;1.10;1.00;;;15.40;99.90;;;;;;5073965;28;20024;-83
2021/11/07 15:45:16;;;;;;;5.13;0.38;;;15.40;99.90;;;;;;5092878;28;20098;-83
2021/11/07 15:47:56;;;;;;;0.00;0.00;;;15.40;99.90;;;;;;5092951;28;20032;-83
2021/11/07 15:50:33;;;;;;;0.22;0.22;;;15.40;99.90;;;;;;5074227;28;20440;-83
2021/11/07 15:55:40;;;;;;;0.85;0.65;;;15.70;99.90;;;;;;5091642;28;20031;-83
2021/11/07 16:03:29;;;;;;;0.00;0.00;;;18.10;99.90;;;;;;5092728;28;20020;-83